Time;durP1;ratioP1;P1;durP2;ratioP2;P2;SDS_P1;SDS_P2;PMS_P1;PMS_P2;Temp;Humidity;BMP_temperature;BMP_pressure;BME280_temperature;BME280_humidity;BME280_pressure;Samples;Min_cycle;Max_cycle;Signal;HPM_P1;HPM_P2
2021/08/11 00:01:20;;;;;;;;;4.67;4.67;;;;;;;;5088839;27;50883;-67
2021/08/11 00:03:45;;;;;;;;;5.00;5.00;;;;;;;;5062572;28;51072;-67
2021/08/11 00:06:11;;;;;;;;;6.00;5.67;;;;;;;;5066518;28;51221;-67
2021/08/11 00:08:36;;;;;;;;;5.00;5.00;;;;;;;;5075131;28;51281;-67
2021/08/11 00:11:01;;;;;;;;;4.00;4.00;;;;;;;;5075065;28;51252;-66
2021/08/11 00:13:26;;;;;;;;;5.00;5.00;;;;;;;;5074973;28;51295;-66
2021/08/11 00:15:52;;;;;;;;;6.00;6.00;;;;;;;;5075358;28;50889;-66
2021/08/11 00:18:17;;;;;;;;;4.00;4.00;;;;;;;;5074833;28;51098;-67
2021/08/11 00:20:42;;;;;;;;;4.00;4.00;;;;;;;;5074934;28;50970;-67
2021/08/11 00:23:08;;;;;;;;;4.00;4.00;;;;;;;;5075156;28;51047;-67
2021/08/11 00:25:34;;;;;;;;;3.00;3.00;;;;;;;;5056762;28;51370;-67
2021/08/11 00:27:59;;;;;;;;;3.00;3.00;;;;;;;;5074708;28;51607;-67
2021/08/11 00:30:24;;;;;;;;;4.00;4.00;;;;;;;;5074922;28;51061;-67
2021/08/11 00:32:49;;;;;;;;;6.00;5.00;;;;;;;;5074592;28;50991;-67
2021/08/11 00:35:15;;;;;;;;;4.00;4.00;;;;;;;;5074811;28;51427;-67
2021/08/11 00:37:40;;;;;;;;;5.67;5.67;;;;;;;;5074725;28;52285;-67
2021/08/11 00:40:06;;;;;;;;;4.33;4.33;;;;;;;;5074664;28;51014;-67
2021/08/11 00:42:31;;;;;;;;;6.00;5.33;;;;;;;;5074718;28;51053;-67
2021/08/11 00:44:59;;;;;;;;;4.00;4.00;;;;;;;;5074653;28;51402;-67
2021/08/11 00:47:27;;;;;;;;;4.00;4.00;;;;;;;;5074068;28;52214;-67
2021/08/11 00:49:52;;;;;;;;;6.00;5.67;;;;;;;;5074444;28;51068;-67
2021/08/11 00:52:18;;;;;;;;;4.67;4.67;;;;;;;;5074432;28;51218;-67
2021/08/11 00:54:43;;;;;;;;;4.33;4.33;;;;;;;;5074688;28;51383;-67
2021/08/11 00:57:10;;;;;;;;;6.00;6.00;;;;;;;;5074441;28;51544;-67
2021/08/11 00:59:37;;;;;;;;;4.00;4.00;;;;;;;;5074367;28;50962;-67
2021/08/11 01:02:03;;;;;;;;;4.00;3.33;;;;;;;;5074020;28;50947;-67
2021/08/11 01:04:28;;;;;;;;;5.00;5.00;;;;;;;;5056045;28;51416;-68
2021/08/11 01:06:54;;;;;;;;;4.00;4.00;;;;;;;;5074084;28;52231;-67
2021/08/11 01:09:20;;;;;;;;;3.00;3.00;;;;;;;;5074228;28;51139;-67
2021/08/11 01:11:47;;;;;;;;;4.00;4.00;;;;;;;;5074212;28;51073;-68
2021/08/11 01:14:13;;;;;;;;;2.67;2.67;;;;;;;;5074148;28;51255;-66
2021/08/11 01:16:38;;;;;;;;;3.67;3.67;;;;;;;;5073095;28;52569;-67
2021/08/11 01:19:03;;;;;;;;;3.00;2.00;;;;;;;;5065277;27;51100;-67
2021/08/11 01:21:31;;;;;;;;;3.00;3.00;;;;;;;;5074352;28;51056;-67
2021/08/11 01:24:20;;;;;;;;;3.00;3.00;;;;;;;;5074374;28;51261;-68
2021/08/11 01:26:45;;;;;;;;;4.00;3.00;;;;;;;;5026239;28;51099;-67
2021/08/11 01:29:20;;;;;;;;;2.67;2.67;;;;;;;;5073847;28;50961;-66
2021/08/11 01:31:58;;;;;;;;;3.00;3.00;;;;;;;;5055798;28;51147;-67
2021/08/11 01:34:29;;;;;;;;;3.00;3.00;;;;;;;;5074099;28;51258;-67
2021/08/11 01:37:00;;;;;;;;;2.00;2.00;;;;;;;;5073473;28;52671;-67
2021/08/11 01:39:34;;;;;;;;;3.00;3.00;;;;;;;;5074133;28;50866;-68
2021/08/11 01:42:03;;;;;;;;;2.67;2.67;;;;;;;;5073584;28;50957;-68
2021/08/11 01:44:35;;;;;;;;;2.00;2.00;;;;;;;;5073956;28;51196;-68
2021/08/11 01:47:02;;;;;;;;;4.00;3.00;;;;;;;;5073197;28;50918;-68
2021/08/11 01:49:28;;;;;;;;;2.33;2.33;;;;;;;;5073542;28;50930;-68
2021/08/11 01:51:55;;;;;;;;;2.00;2.00;;;;;;;;5073574;28;51164;-67
2021/08/11 01:54:20;;;;;;;;;2.33;2.33;;;;;;;;5055503;28;51098;-68
2021/08/11 01:56:46;;;;;;;;;1.00;1.00;;;;;;;;5073588;27;51039;-67
2021/08/11 01:59:12;;;;;;;;;2.67;2.67;;;;;;;;5073564;28;51092;-67
2021/08/11 02:01:41;;;;;;;;;2.00;2.00;;;;;;;;5073604;28;50863;-67
2021/08/11 02:04:06;;;;;;;;;2.00;2.00;;;;;;;;5073454;28;50941;-67
2021/08/11 02:06:32;;;;;;;;;3.00;3.00;;;;;;;;5072969;28;51930;-67
2021/08/11 02:08:59;;;;;;;;;4.00;4.00;;;;;;;;5073520;28;50878;-67
2021/08/11 02:11:24;;;;;;;;;2.67;2.67;;;;;;;;5073517;28;50978;-67
2021/08/11 02:13:49;;;;;;;;;2.33;2.33;;;;;;;;5073309;28;51228;-67
2021/08/11 02:16:15;;;;;;;;;3.00;3.00;;;;;;;;5073249;28;52390;-67
2021/08/11 02:18:40;;;;;;;;;3.00;3.00;;;;;;;;5072954;28;51039;-68
2021/08/11 02:21:05;;;;;;;;;3.33;3.00;;;;;;;;5073340;28;50989;-67
2021/08/11 02:23:30;;;;;;;;;2.33;2.33;;;;;;;;5073273;28;51180;-67
2021/08/11 02:26:14;;;;;;;;;3.00;3.00;;;;;;;;5072864;28;51036;-67
2021/08/11 02:28:39;;;;;;;;;3.00;3.00;;;;;;;;5072996;28;50953;-67
2021/08/11 02:31:24;;;;;;;;;2.00;2.00;;;;;;;;5073215;28;50937;-67
2021/08/11 02:33:56;;;;;;;;;4.67;4.33;;;;;;;;5072182;28;50937;-67
2021/08/11 02:36:34;;;;;;;;;3.33;3.33;;;;;;;;5054287;28;52064;-67
2021/08/11 02:39:07;;;;;;;;;2.67;2.67;;;;;;;;5072662;28;51103;-67
2021/08/11 02:41:41;;;;;;;;;1.67;1.67;;;;;;;;5072479;28;51113;-67
2021/08/11 02:44:08;;;;;;;;;3.00;3.00;;;;;;;;5072989;28;51307;-67
2021/08/11 02:46:38;;;;;;;;;3.00;2.33;;;;;;;;5072631;28;51138;-67
2021/08/11 02:49:06;;;;;;;;;1.67;1.67;;;;;;;;5072321;28;50986;-67
2021/08/11 02:51:32;;;;;;;;;2.33;2.33;;;;;;;;5072369;28;51170;-67
2021/08/11 02:54:00;;;;;;;;;2.67;2.67;;;;;;;;5072925;28;51144;-68
2021/08/11 02:56:25;;;;;;;;;2.67;2.67;;;;;;;;5072294;28;51420;-68
2021/08/11 02:58:51;;;;;;;;;3.00;2.67;;;;;;;;5072563;28;51041;-68
2021/08/11 03:01:16;;;;;;;;;2.67;2.67;;;;;;;;5072607;28;51243;-67
2021/08/11 03:03:42;;;;;;;;;3.67;3.67;;;;;;;;5072533;28;50934;-67
2021/08/11 03:06:07;;;;;;;;;2.00;2.00;;;;;;;;5072403;28;50964;-68
2021/08/11 03:08:33;;;;;;;;;2.67;1.67;;;;;;;;5072798;28;51013;-67
2021/08/11 03:10:58;;;;;;;;;2.67;2.33;;;;;;;;5054448;28;51046;-67
2021/08/11 03:13:24;;;;;;;;;3.00;3.00;;;;;;;;5054259;28;51128;-68
2021/08/11 03:15:49;;;;;;;;;4.67;3.67;;;;;;;;5072270;28;50990;-68
2021/08/11 03:18:16;;;;;;;;;1.67;1.67;;;;;;;;5069925;27;51269;-67
2021/08/11 03:20:41;;;;;;;;;3.00;3.00;;;;;;;;5059425;28;51114;-67
2021/08/11 03:23:06;;;;;;;;;4.33;2.67;;;;;;;;5072509;28;51336;-68
2021/08/11 03:25:32;;;;;;;;;2.00;2.00;;;;;;;;5072114;28;50916;-67
2021/08/11 03:27:57;;;;;;;;;2.33;2.33;;;;;;;;5072395;28;50994;-67
2021/08/11 03:30:22;;;;;;;;;1.67;1.67;;;;;;;;5072326;28;51071;-67
2021/08/11 03:32:47;;;;;;;;;2.00;2.00;;;;;;;;5072186;28;51359;-67
2021/08/11 03:35:13;;;;;;;;;2.00;2.00;;;;;;;;5071743;28;50992;-67
2021/08/11 03:37:38;;;;;;;;;2.00;2.00;;;;;;;;5072125;28;51150;-67
2021/08/11 03:40:03;;;;;;;;;0.67;0.33;;;;;;;;5075331;28;51213;-66
2021/08/11 03:42:29;;;;;;;;;2.00;1.00;;;;;;;;5075982;28;51211;-67
2021/08/11 03:44:54;;;;;;;;;3.00;3.00;;;;;;;;5075248;28;52030;-68
2021/08/11 03:47:19;;;;;;;;;4.33;4.33;;;;;;;;5075316;28;50974;-68
2021/08/11 03:49:50;;;;;;;;;6.00;6.00;;;;;;;;5075150;28;50942;-67
2021/08/11 03:52:15;;;;;;;;;3.67;3.67;;;;;;;;5068227;28;51949;-67
2021/08/11 03:54:40;;;;;;;;;4.00;3.33;;;;;;;;5076536;28;50886;-66
2021/08/11 03:57:05;;;;;;;;;2.67;2.67;;;;;;;;5075519;28;50965;-66
2021/08/11 03:59:30;;;;;;;;;3.33;3.33;;;;;;;;5075478;28;51098;-67
2021/08/11 04:01:56;;;;;;;;;3.33;3.33;;;;;;;;5075462;28;51155;-67
2021/08/11 04:04:21;;;;;;;;;2.00;1.67;;;;;;;;5075036;28;51366;-67
2021/08/11 04:06:46;;;;;;;;;4.00;4.00;;;;;;;;5066751;28;51079;-67
2021/08/11 04:09:11;;;;;;;;;3.00;3.00;;;;;;;;5075193;28;50854;-67
2021/08/11 04:11:37;;;;;;;;;1.67;1.67;;;;;;;;5075544;28;51077;-67
2021/08/11 04:14:02;;;;;;;;;2.67;2.67;;;;;;;;5074635;28;51111;-67
2021/08/11 04:16:27;;;;;;;;;2.00;2.00;;;;;;;;5075334;28;50832;-67
2021/08/11 04:18:52;;;;;;;;;2.00;2.00;;;;;;;;5074777;28;51029;-67
2021/08/11 04:21:17;;;;;;;;;4.00;4.00;;;;;;;;5075037;28;51329;-67
2021/08/11 04:23:43;;;;;;;;;1.67;1.67;;;;;;;;5074654;28;52419;-65
2021/08/11 04:26:08;;;;;;;;;1.67;1.67;;;;;;;;5075043;28;51140;-67
2021/08/11 04:28:33;;;;;;;;;2.33;2.33;;;;;;;;5074899;28;50882;-67
2021/08/11 04:30:58;;;;;;;;;3.00;2.67;;;;;;;;5075008;28;51078;-67
2021/08/11 04:33:23;;;;;;;;;2.00;1.67;;;;;;;;5073847;28;51816;-67
2021/08/11 04:35:49;;;;;;;;;1.00;1.00;;;;;;;;5074977;28;51101;-67
2021/08/11 04:38:16;;;;;;;;;3.33;2.67;;;;;;;;5074616;28;50919;-68
2021/08/11 04:40:42;;;;;;;;;3.67;2.67;;;;;;;;5075017;28;50988;-67
2021/08/11 04:43:07;;;;;;;;;1.67;1.67;;;;;;;;5073938;28;51177;-66
2021/08/11 04:45:36;;;;;;;;;2.67;2.00;;;;;;;;5074663;28;50975;-68
2021/08/11 04:48:01;;;;;;;;;4.67;4.67;;;;;;;;5074155;28;50997;-67
2021/08/11 04:50:27;;;;;;;;;3.67;3.00;;;;;;;;5036090;28;50936;-66
2021/08/11 04:52:52;;;;;;;;;3.00;2.33;;;;;;;;5071672;28;51198;-67
2021/08/11 04:55:17;;;;;;;;;3.00;2.67;;;;;;;;5074370;28;50910;-67
2021/08/11 04:57:42;;;;;;;;;2.00;2.00;;;;;;;;5074500;28;50955;-67
2021/08/11 05:00:08;;;;;;;;;1.00;1.00;;;;;;;;5074941;28;51227;-67
2021/08/11 05:02:33;;;;;;;;;0.00;0.00;;;;;;;;5073859;28;51325;-67
2021/08/11 05:04:59;;;;;;;;;3.00;3.00;;;;;;;;5055972;28;51048;-66
2021/08/11 05:07:24;;;;;;;;;4.00;3.00;;;;;;;;5073502;28;50964;-67
2021/08/11 05:09:50;;;;;;;;;3.00;2.67;;;;;;;;5074522;28;51396;-67
2021/08/11 05:12:15;;;;;;;;;2.67;2.67;;;;;;;;5073794;28;52710;-66
2021/08/11 05:14:40;;;;;;;;;3.00;3.00;;;;;;;;5074141;28;51010;-67
2021/08/11 05:17:05;;;;;;;;;2.67;2.67;;;;;;;;5073587;28;50962;-67
2021/08/11 05:19:31;;;;;;;;;4.67;4.00;;;;;;;;5054265;28;51098;-66
2021/08/11 05:21:56;;;;;;;;;4.00;4.00;;;;;;;;5070334;28;52023;-66
2021/08/11 05:24:21;;;;;;;;;4.00;4.00;;;;;;;;5074175;28;51012;-68
2021/08/11 05:26:47;;;;;;;;;4.00;3.00;;;;;;;;5074053;28;51506;-67
2021/08/11 05:29:18;;;;;;;;;2.00;2.00;;;;;;;;5074201;28;51318;-66
2021/08/11 05:31:44;;;;;;;;;3.00;3.00;;;;;;;;5073188;28;52328;-67
2021/08/11 05:34:09;;;;;;;;;3.00;3.00;;;;;;;;5073700;28;51084;-67
2021/08/11 05:36:34;;;;;;;;;4.00;3.67;;;;;;;;5073703;28;51229;-67
2021/08/11 05:38:59;;;;;;;;;3.00;3.00;;;;;;;;5073779;28;51059;-67
2021/08/11 05:41:24;;;;;;;;;4.00;4.00;;;;;;;;5073336;28;51401;-68
2021/08/11 05:43:50;;;;;;;;;2.67;2.67;;;;;;;;5073769;28;50938;-68
2021/08/11 05:46:15;;;;;;;;;3.33;3.33;;;;;;;;5073576;28;51072;-68
2021/08/11 05:48:40;;;;;;;;;4.67;4.67;;;;;;;;5073599;28;51099;-68
2021/08/11 05:51:05;;;;;;;;;3.00;3.00;;;;;;;;5073270;28;51889;-68
2021/08/11 05:53:30;;;;;;;;;2.00;2.00;;;;;;;;5073639;28;51178;-67
2021/08/11 05:55:55;;;;;;;;;5.00;4.33;;;;;;;;5073439;28;50976;-67
2021/08/11 05:58:21;;;;;;;;;3.00;3.00;;;;;;;;5073904;28;50907;-66
2021/08/11 06:00:46;;;;;;;;;6.00;5.00;;;;;;;;5072904;28;52173;-66
2021/08/11 06:03:11;;;;;;;;;3.00;3.00;;;;;;;;5072860;28;51094;-67
2021/08/11 06:05:37;;;;;;;;;4.67;4.67;;;;;;;;5073332;28;50981;-66
2021/08/11 06:08:02;;;;;;;;;5.00;5.00;;;;;;;;5073584;28;51140;-66
2021/08/11 06:10:28;;;;;;;;;5.67;5.00;;;;;;;;5072910;28;51946;-66
2021/08/11 06:12:53;;;;;;;;;4.33;4.33;;;;;;;;5072769;28;51080;-67
2021/08/11 06:15:19;;;;;;;;;5.00;5.00;;;;;;;;5072941;28;51043;-66
2021/08/11 06:17:49;;;;;;;;;6.67;6.00;;;;;;;;5072927;28;50926;-67
2021/08/11 06:20:15;;;;;;;;;5.00;5.00;;;;;;;;5072406;28;52170;-67
2021/08/11 06:22:41;;;;;;;;;10.00;9.67;;;;;;;;5072544;28;51178;-67
2021/08/11 06:25:07;;;;;;;;;8.33;8.33;;;;;;;;5072897;28;51022;-67
2021/08/11 06:27:32;;;;;;;;;5.00;5.00;;;;;;;;5073182;28;50934;-67
2021/08/11 06:29:57;;;;;;;;;4.67;4.00;;;;;;;;5054263;28;53162;-67
2021/08/11 06:32:23;;;;;;;;;6.33;6.00;;;;;;;;5072433;28;51117;-67
2021/08/11 06:34:48;;;;;;;;;5.00;4.67;;;;;;;;5072854;28;51136;-67
2021/08/11 06:37:13;;;;;;;;;7.33;7.33;;;;;;;;5072602;28;50963;-67
2021/08/11 06:39:38;;;;;;;;;6.00;6.00;;;;;;;;5072085;28;51129;-66
2021/08/11 06:42:03;;;;;;;;;5.33;5.33;;;;;;;;5072691;28;51052;-67
2021/08/11 06:44:29;;;;;;;;;6.00;6.00;;;;;;;;5072591;28;50979;-67
2021/08/11 06:46:54;;;;;;;;;6.00;6.00;;;;;;;;5054126;28;51395;-67
2021/08/11 06:49:19;;;;;;;;;6.00;6.00;;;;;;;;5072374;28;51909;-68
2021/08/11 06:51:44;;;;;;;;;6.00;6.00;;;;;;;;5072061;28;50864;-67
2021/08/11 06:54:12;;;;;;;;;5.33;4.67;;;;;;;;5072200;28;51068;-68
2021/08/11 06:56:37;;;;;;;;;5.00;5.00;;;;;;;;5072682;28;51204;-67
2021/08/11 06:59:02;;;;;;;;;5.33;5.33;;;;;;;;5071976;28;51738;-67
2021/08/11 07:01:27;;;;;;;;;8.00;8.00;;;;;;;;5053774;28;51112;-67
2021/08/11 07:03:53;;;;;;;;;4.00;3.33;;;;;;;;5071646;28;51006;-67
2021/08/11 07:06:18;;;;;;;;;4.00;3.00;;;;;;;;5072290;28;50864;-68
2021/08/11 07:08:43;;;;;;;;;3.00;3.00;;;;;;;;5071877;28;51809;-67
2021/08/11 07:11:08;;;;;;;;;5.00;4.33;;;;;;;;5071803;28;51131;-68
2021/08/11 07:13:34;;;;;;;;;4.00;4.00;;;;;;;;5072643;28;51111;-68
2021/08/11 07:15:59;;;;;;;;;6.33;4.67;;;;;;;;5075569;28;51435;-66
2021/08/11 07:18:24;;;;;;;;;3.00;2.67;;;;;;;;5075197;28;52282;-68
2021/08/11 07:20:49;;;;;;;;;2.67;2.67;;;;;;;;5071595;27;51215;-67
2021/08/11 07:23:15;;;;;;;;;2.33;2.33;;;;;;;;5068336;28;51112;-66
2021/08/11 07:25:40;;;;;;;;;3.00;3.00;;;;;;;;5075629;28;50962;-67
2021/08/11 07:28:05;;;;;;;;;2.67;2.67;;;;;;;;5075310;28;51180;-67
2021/08/11 07:30:31;;;;;;;;;3.00;2.67;;;;;;;;5057137;28;51056;-67
2021/08/11 07:32:56;;;;;;;;;2.33;2.00;;;;;;;;5075113;28;50987;-67
2021/08/11 07:35:21;;;;;;;;;3.00;3.00;;;;;;;;5075595;28;51003;-67
2021/08/11 07:37:47;;;;;;;;;4.00;4.00;;;;;;;;5075043;28;52562;-67
2021/08/11 07:40:13;;;;;;;;;3.00;3.00;;;;;;;;5075193;28;50888;-67
2021/08/11 07:42:38;;;;;;;;;4.00;4.00;;;;;;;;5075530;28;50997;-67
2021/08/11 07:45:03;;;;;;;;;2.00;2.00;;;;;;;;5057063;28;51443;-67
2021/08/11 07:47:29;;;;;;;;;4.00;4.00;;;;;;;;5075000;28;52224;-67
2021/08/11 07:49:54;;;;;;;;;5.00;5.00;;;;;;;;5075652;28;50866;-67
2021/08/11 07:52:19;;;;;;;;;3.33;3.33;;;;;;;;5075163;28;50944;-67
2021/08/11 07:54:44;;;;;;;;;3.00;3.00;;;;;;;;5057031;28;51012;-67
2021/08/11 07:57:09;;;;;;;;;3.00;3.00;;;;;;;;5057000;28;52928;-67
2021/08/11 07:59:35;;;;;;;;;5.00;4.00;;;;;;;;5075018;28;50907;-67
2021/08/11 08:02:00;;;;;;;;;5.00;5.00;;;;;;;;5074890;28;50936;-67
2021/08/11 08:04:25;;;;;;;;;3.33;3.33;;;;;;;;5056777;28;51011;-67
2021/08/11 08:06:50;;;;;;;;;3.00;2.33;;;;;;;;5074519;28;51790;-67
2021/08/11 08:09:15;;;;;;;;;4.00;4.00;;;;;;;;5074665;28;50840;-66
2021/08/11 08:11:41;;;;;;;;;4.00;3.00;;;;;;;;5075274;28;50890;-66
2021/08/11 08:14:06;;;;;;;;;3.00;3.00;;;;;;;;5074697;28;50999;-66
2021/08/11 08:16:31;;;;;;;;;6.00;6.00;;;;;;;;5074189;28;50988;-67
2021/08/11 08:18:56;;;;;;;;;4.33;4.00;;;;;;;;5074077;28;51033;-67
2021/08/11 08:21:22;;;;;;;;;4.00;4.00;;;;;;;;5074573;28;51358;-66
2021/08/11 08:23:47;;;;;;;;;3.33;2.67;;;;;;;;5074207;28;51134;-65
2021/08/11 08:26:12;;;;;;;;;5.00;5.00;;;;;;;;5074155;28;52138;-64
2021/08/11 08:28:37;;;;;;;;;5.00;4.33;;;;;;;;5074205;28;50995;-65
2021/08/11 08:31:02;;;;;;;;;5.00;5.00;;;;;;;;5074432;28;51383;-67
2021/08/11 08:33:28;;;;;;;;;5.00;4.00;;;;;;;;5074479;28;51294;-66
2021/08/11 08:35:53;;;;;;;;;5.33;5.00;;;;;;;;5074301;28;51190;-66
2021/08/11 08:38:19;;;;;;;;;6.00;6.00;;;;;;;;5073793;28;50958;-66
2021/08/11 08:40:46;;;;;;;;;5.00;5.00;;;;;;;;5073761;28;51088;-67
2021/08/11 08:43:11;;;;;;;;;6.33;5.67;;;;;;;;5073879;28;50945;-63
2021/08/11 08:45:37;;;;;;;;;4.00;4.00;;;;;;;;5073934;28;51557;-64
2021/08/11 08:48:04;;;;;;;;;4.00;4.00;;;;;;;;5073808;28;51076;-64
2021/08/11 08:50:29;;;;;;;;;3.00;3.00;;;;;;;;5074450;28;50910;-66
2021/08/11 08:52:54;;;;;;;;;3.67;3.67;;;;;;;;5073770;28;51329;-66
2021/08/11 08:55:20;;;;;;;;;6.00;5.67;;;;;;;;5074013;28;51909;-65
2021/08/11 08:57:45;;;;;;;;;3.67;3.33;;;;;;;;5073916;28;51018;-66
2021/08/11 09:00:11;;;;;;;;;5.00;5.00;;;;;;;;5074087;28;50900;-65
2021/08/11 09:02:39;;;;;;;;;5.00;4.00;;;;;;;;5073538;28;50914;-65
2021/08/11 09:05:08;;;;;;;;;6.67;6.67;;;;;;;;5073127;28;51130;-65
2021/08/11 09:07:34;;;;;;;;;4.00;4.00;;;;;;;;5073343;28;51126;-65
2021/08/11 09:10:11;;;;;;;;;6.25;6.25;;;;;;;;5055701;28;51096;-65
2021/08/11 09:12:42;;;;;;;;;6.50;6.00;;;;;;;;5073368;28;51386;-65
2021/08/11 09:15:23;;;;;;;;;5.25;5.25;;;;;;;;5072996;28;52267;-64
2021/08/11 09:17:48;;;;;;;;;4.00;4.00;;;;;;;;5072976;28;50986;-65
2021/08/11 09:20:20;;;;;;;;;3.75;3.75;;;;;;;;5055159;28;51047;-65
2021/08/11 09:22:47;;;;;;;;;5.50;5.50;;;;;;;;5068970;27;51451;-65
2021/08/11 09:25:12;;;;;;;;;5.50;4.75;;;;;;;;5072993;28;51859;-65
2021/08/11 09:27:38;;;;;;;;;8.50;8.00;;;;;;;;5072728;28;50907;-65
2021/08/11 09:30:08;;;;;;;;;7.00;7.00;;;;;;;;5073458;28;51058;-65
2021/08/11 09:32:49;;;;;;;;;3.67;3.67;;;;;;;;5055227;28;51036;-65
2021/08/11 09:35:15;;;;;;;;;6.00;5.33;;;;;;;;5072690;28;51888;-64
2021/08/11 09:37:44;;;;;;;;;4.00;4.00;;;;;;;;5071805;28;51018;-65
2021/08/11 09:40:10;;;;;;;;;6.33;6.00;;;;;;;;5072716;28;51072;-65
2021/08/11 09:42:36;;;;;;;;;5.33;5.33;;;;;;;;5037541;28;51343;-65
2021/08/11 09:45:01;;;;;;;;;5.00;5.00;;;;;;;;5054077;28;51402;-65
2021/08/11 09:47:27;;;;;;;;;7.00;7.00;;;;;;;;5072667;28;50994;-65
2021/08/11 09:50:00;;;;;;;;;6.33;6.00;;;;;;;;5073165;28;51008;-65
2021/08/11 09:52:25;;;;;;;;;12.00;10.00;;;;;;;;5051409;28;51248;-64
2021/08/11 09:54:57;;;;;;;;;7.00;6.50;;;;;;;;5052469;28;50991;-65
2021/08/11 09:57:29;;;;;;;;;6.25;5.50;;;;;;;;5052557;28;51010;-66
2021/08/11 09:59:55;;;;;;;;;5.50;4.25;;;;;;;;5052860;28;51168;-65
2021/08/11 10:02:21;;;;;;;;;6.50;4.75;;;;;;;;5052390;28;51271;-65
2021/08/11 10:04:46;;;;;;;;;5.75;5.75;;;;;;;;5052340;28;52071;-66
2021/08/11 10:07:12;;;;;;;;;9.25;8.50;;;;;;;;5052125;28;51018;-65
2021/08/11 10:09:37;;;;;;;;;10.00;8.50;;;;;;;;5052365;28;50951;-65
2021/08/11 10:12:03;;;;;;;;;5.50;5.50;;;;;;;;5052942;28;51114;-65
2021/08/11 10:14:29;;;;;;;;;10.25;10.00;;;;;;;;5052688;28;51989;-65
2021/08/11 10:16:57;;;;;;;;;7.00;7.00;;;;;;;;5052365;28;50936;-65
2021/08/11 10:19:23;;;;;;;;;6.00;6.00;;;;;;;;5052694;28;50870;-65
2021/08/11 10:21:48;;;;;;;;;6.50;6.50;;;;;;;;5052322;28;51268;-65
2021/08/11 10:24:15;;;;;;;;;6.00;5.00;;;;;;;;5052055;28;52122;-65
2021/08/11 10:26:40;;;;;;;;;6.00;6.00;;;;;;;;5051956;28;51123;-65
2021/08/11 10:29:06;;;;;;;;;5.25;5.25;;;;;;;;5051924;28;51059;-65
2021/08/11 10:31:32;;;;;;;;;6.50;6.50;;;;;;;;5051534;28;50960;-65
2021/08/11 10:34:00;;;;;;;;;6.75;6.75;;;;;;;;5051896;28;53584;-65
2021/08/11 10:36:25;;;;;;;;;6.00;6.00;;;;;;;;5052153;28;50908;-65
2021/08/11 10:38:52;;;;;;;;;5.25;5.25;;;;;;;;5051955;28;50989;-64
2021/08/11 10:41:17;;;;;;;;;7.00;7.00;;;;;;;;5052020;28;50897;-65
2021/08/11 10:43:43;;;;;;;;;6.75;6.25;;;;;;;;5051778;28;51613;-65
2021/08/11 10:46:11;;;;;;;;;7.25;7.25;;;;;;;;5051851;28;50863;-65
2021/08/11 10:48:37;;;;;;;;;6.50;6.50;;;;;;;;5051570;28;51058;-64
2021/08/11 10:51:02;;;;;;;;;5.00;5.00;;;;;;;;5051406;28;51268;-65
2021/08/11 10:53:28;;;;;;;;;6.00;6.00;;;;;;;;5070018;28;51169;-64
2021/08/11 10:55:54;;;;;;;;;7.50;7.50;;;;;;;;5071494;28;50904;-65
2021/08/11 10:58:38;;;;;;;;;6.50;6.50;;;;;;;;5071970;28;51318;-65
2021/08/11 11:01:22;;;;;;;;;8.25;6.75;;;;;;;;5071974;28;51261;-65
2021/08/11 11:03:51;;;;;;;;;7.00;7.00;;;;;;;;5071319;28;52125;-65
2021/08/11 11:06:16;;;;;;;;;5.00;5.00;;;;;;;;5053171;28;50983;-65
2021/08/11 11:08:42;;;;;;;;;7.00;6.50;;;;;;;;5071448;28;51085;-64
2021/08/11 11:11:30;;;;;;;;;8.25;7.50;;;;;;;;5071739;27;51088;-65
2021/08/11 11:13:55;;;;;;;;;6.50;6.50;;;;;;;;5060344;28;51986;-65
2021/08/11 11:16:21;;;;;;;;;10.00;9.50;;;;;;;;5071077;28;51052;-65
2021/08/11 11:19:04;;;;;;;;;8.25;8.00;;;;;;;;5071030;28;51102;-65
2021/08/11 11:21:30;;;;;;;;;8.00;8.00;;;;;;;;5071635;28;51231;-65
2021/08/11 11:23:56;;;;;;;;;6.50;5.50;;;;;;;;5063240;28;52221;-65
2021/08/11 11:26:34;;;;;;;;;7.50;7.00;;;;;;;;5071212;28;50959;-65
2021/08/11 11:28:59;;;;;;;;;7.50;7.00;;;;;;;;5071286;28;50975;-65
2021/08/11 11:31:28;;;;;;;;;7.25;7.25;;;;;;;;5070500;28;51382;-64
2021/08/11 11:33:53;;;;;;;;;8.75;8.75;;;;;;;;5071572;28;50974;-64
2021/08/11 11:36:19;;;;;;;;;8.00;7.75;;;;;;;;5071374;28;50946;-65
2021/08/11 11:39:08;;;;;;;;;8.50;8.50;;;;;;;;5071280;28;51058;-65
2021/08/11 11:41:34;;;;;;;;;8.25;8.25;;;;;;;;5070398;28;51373;-64
2021/08/11 11:44:17;;;;;;;;;5.75;5.75;;;;;;;;5070956;28;52200;-64
2021/08/11 11:46:46;;;;;;;;;6.00;5.00;;;;;;;;5070278;28;50980;-66
2021/08/11 11:49:18;;;;;;;;;5.75;5.75;;;;;;;;5070947;28;51098;-65
2021/08/11 11:51:43;;;;;;;;;6.75;6.25;;;;;;;;5071275;28;51248;-65
2021/08/11 11:54:09;;;;;;;;;8.00;8.00;;;;;;;;5070326;28;52169;-65
2021/08/11 11:56:34;;;;;;;;;8.50;7.00;;;;;;;;5071140;28;51012;-64
2021/08/11 11:59:04;;;;;;;;;6.50;6.50;;;;;;;;5071720;28;50978;-65
2021/08/11 12:01:34;;;;;;;;;8.50;7.75;;;;;;;;5056747;28;51359;-65
2021/08/11 12:04:00;;;;;;;;;6.75;6.75;;;;;;;;5074146;28;52369;-64
2021/08/11 12:06:35;;;;;;;;;6.00;6.00;;;;;;;;5074426;28;51043;-65
2021/08/11 12:09:00;;;;;;;;;9.00;7.00;;;;;;;;5074205;28;51008;-65
2021/08/11 12:11:27;;;;;;;;;8.00;7.00;;;;;;;;5074780;28;51084;-65
2021/08/11 12:13:54;;;;;;;;;7.00;6.00;;;;;;;;5073078;28;51927;-65
2021/08/11 12:16:20;;;;;;;;;7.33;7.00;;;;;;;;5074579;28;50942;-64
2021/08/11 12:18:47;;;;;;;;;8.00;8.00;;;;;;;;5074599;28;51165;-65
2021/08/11 12:21:13;;;;;;;;;8.33;8.00;;;;;;;;5073967;28;51050;-65
2021/08/11 12:23:39;;;;;;;;;5.00;5.00;;;;;;;;5074323;28;51010;-65
2021/08/11 12:26:06;;;;;;;;;6.00;6.00;;;;;;;;5074342;27;50945;-66
2021/08/11 12:28:34;;;;;;;;;8.67;8.33;;;;;;;;5074204;28;51108;-65
2021/08/11 12:31:01;;;;;;;;;6.67;6.33;;;;;;;;5074047;28;51291;-66
2021/08/11 12:33:27;;;;;;;;;7.00;7.00;;;;;;;;5055382;28;51756;-64
2021/08/11 12:35:53;;;;;;;;;9.33;8.67;;;;;;;;5074280;28;51096;-64
2021/08/11 12:38:34;;;;;;;;;8.00;7.33;;;;;;;;5073687;28;51014;-65
2021/08/11 12:41:17;;;;;;;;;7.67;7.00;;;;;;;;5055784;28;50973;-65
2021/08/11 12:43:42;;;;;;;;;9.00;8.00;;;;;;;;5073556;28;52732;-65
2021/08/11 12:46:09;;;;;;;;;7.00;6.33;;;;;;;;5073631;28;50955;-65
2021/08/11 12:48:34;;;;;;;;;6.67;6.67;;;;;;;;5074052;28;51160;-65
2021/08/11 12:51:01;;;;;;;;;6.00;6.00;;;;;;;;5074041;28;51198;-66
2021/08/11 12:53:33;;;;;;;;;8.00;7.00;;;;;;;;5073669;28;51990;-66
2021/08/11 12:56:19;;;;;;;;;10.00;8.33;;;;;;;;5073942;28;51064;-64
2021/08/11 12:58:59;;;;;;;;;6.33;6.33;;;;;;;;5073469;27;51056;-66
2021/08/11 13:01:38;;;;;;;;;10.33;10.00;;;;;;;;5073545;28;51251;-65
2021/08/11 13:04:05;;;;;;;;;8.67;8.00;;;;;;;;5073233;28;52085;-67
2021/08/11 13:06:50;;;;;;;;;7.00;7.00;;;;;;;;5073582;28;51005;-64
2021/08/11 13:09:30;;;;;;;;;6.33;6.33;;;;;;;;5072928;27;50984;-66
2021/08/11 13:12:03;;;;;;;;;8.00;8.00;;;;;;;;5073710;28;51217;-66
2021/08/11 13:14:46;;;;;;;;;7.33;6.33;;;;;;;;5070119;28;51363;-68
2021/08/11 13:17:12;;;;;;;;;5.33;5.33;;;;;;;;5073131;28;51107;-65
2021/08/11 13:19:38;;;;;;;;;4.00;4.00;;;;;;;;5073728;28;51116;-66
2021/08/11 13:22:04;;;;;;;;;5.00;5.00;;;;;;;;5073620;28;51032;-65
2021/08/11 13:24:29;;;;;;;;;5.33;5.00;;;;;;;;5063910;27;51027;-66
2021/08/11 13:26:58;;;;;;;;;6.67;6.33;;;;;;;;5069515;28;50982;-66
2021/08/11 13:29:28;;;;;;;;;5.00;5.00;;;;;;;;5073798;28;50955;-66
2021/08/11 13:31:54;;;;;;;;;6.00;6.00;;;;;;;;5072826;28;51077;-66
2021/08/11 13:34:20;;;;;;;;;4.67;4.67;;;;;;;;5073195;27;53090;-66
2021/08/11 13:36:45;;;;;;;;;5.00;5.00;;;;;;;;5067480;28;50828;-66
2021/08/11 13:39:10;;;;;;;;;6.00;6.00;;;;;;;;5073566;28;51325;-66
2021/08/11 13:41:36;;;;;;;;;5.00;4.67;;;;;;;;5073536;28;51094;-66
2021/08/11 13:44:01;;;;;;;;;4.67;4.67;;;;;;;;5073131;28;52293;-66
2021/08/11 13:46:27;;;;;;;;;4.33;4.33;;;;;;;;5072540;28;50920;-67
2021/08/11 13:48:52;;;;;;;;;5.00;4.00;;;;;;;;5073210;28;51074;-65
2021/08/11 13:51:19;;;;;;;;;9.00;7.33;;;;;;;;5072693;28;51321;-65
2021/08/11 13:53:44;;;;;;;;;6.67;6.67;;;;;;;;5054311;28;51206;-66
2021/08/11 13:56:11;;;;;;;;;4.00;4.00;;;;;;;;5072611;28;51010;-66
2021/08/11 13:58:37;;;;;;;;;6.67;6.00;;;;;;;;5072519;28;51040;-66
2021/08/11 14:01:02;;;;;;;;;6.00;6.00;;;;;;;;5072124;28;50970;-66
2021/08/11 14:03:27;;;;;;;;;5.00;5.00;;;;;;;;5071363;28;51211;-66
2021/08/11 14:05:52;;;;;;;;;3.33;3.33;;;;;;;;5071710;28;51135;-66
2021/08/11 14:08:17;;;;;;;;;3.00;3.00;;;;;;;;5072709;28;50987;-67
2021/08/11 14:10:43;;;;;;;;;4.33;4.33;;;;;;;;5072915;28;51169;-65
2021/08/11 14:13:08;;;;;;;;;4.33;4.33;;;;;;;;5071513;28;50987;-65
2021/08/11 14:15:33;;;;;;;;;4.00;4.00;;;;;;;;5071733;28;51118;-66
2021/08/11 14:17:59;;;;;;;;;4.50;4.50;;;;;;;;5072156;28;51241;-65
2021/08/11 14:20:24;;;;;;;;;7.00;6.33;;;;;;;;5072773;28;50841;-66
2021/08/11 14:22:50;;;;;;;;;5.33;5.33;;;;;;;;5071437;28;51236;-64
2021/08/11 14:25:15;;;;;;;;;5.33;5.33;;;;;;;;5072413;28;50858;-66
2021/08/11 14:27:40;;;;;;;;;6.33;6.00;;;;;;;;5072321;28;51123;-66
2021/08/11 14:30:06;;;;;;;;;10.00;10.00;;;;;;;;5072435;28;51085;-65
2021/08/11 14:32:31;;;;;;;;;5.00;5.00;;;;;;;;5071716;28;52026;-66
2021/08/11 14:34:56;;;;;;;;;8.00;7.00;;;;;;;;5071884;28;51069;-65
2021/08/11 14:37:21;;;;;;;;;5.00;5.00;;;;;;;;5053740;28;51244;-65
2021/08/11 14:39:46;;;;;;;;;5.67;5.67;;;;;;;;5072233;28;51155;-67
2021/08/11 14:42:12;;;;;;;;;7.33;7.33;;;;;;;;5071834;28;52127;-66